createdAt,value
2018-12-13T00:01:46.428Z,15.27
2018-12-13T00:04:14.591Z,14.67
2018-12-13T00:06:42.779Z,15.00
2018-12-13T00:09:10.941Z,14.53
2018-12-13T00:11:39.295Z,15.23
2018-12-13T00:14:07.500Z,16.27
2018-12-13T00:16:35.648Z,15.63
2018-12-13T00:19:03.832Z,15.13
2018-12-13T00:21:32.024Z,14.53
2018-12-13T00:24:00.200Z,16.97
2018-12-13T00:26:28.448Z,16.43
2018-12-13T00:28:56.633Z,17.37
2018-12-13T00:31:24.802Z,17.13
2018-12-13T00:33:53.442Z,17.77
2018-12-13T00:36:21.625Z,17.23
2018-12-13T00:38:49.805Z,16.30
2018-12-13T00:41:17.983Z,16.30
2018-12-13T00:43:46.271Z,16.67
2018-12-13T00:46:14.558Z,16.97
2018-12-13T00:48:42.763Z,16.93
2018-12-13T00:51:10.923Z,15.97
2018-12-13T00:53:39.112Z,16.33
2018-12-13T00:56:07.276Z,16.83
2018-12-13T00:58:35.456Z,17.57
2018-12-13T01:01:03.610Z,16.30
2018-12-13T01:03:31.794Z,17.37
2018-12-13T01:06:00.101Z,15.93
2018-12-13T01:08:28.271Z,17.03
2018-12-13T01:10:56.435Z,17.23
2018-12-13T01:13:24.617Z,18.20
2018-12-13T01:15:52.791Z,17.30
2018-12-13T01:18:20.984Z,18.37
2018-12-13T01:20:49.149Z,17.63
2018-12-13T01:23:17.321Z,17.90
2018-12-13T01:25:45.494Z,18.00
2018-12-13T01:28:13.684Z,17.80
2018-12-13T01:30:41.896Z,17.17
2018-12-13T01:33:10.046Z,17.73
2018-12-13T01:35:38.232Z,17.93
2018-12-13T01:38:06.397Z,17.20
2018-12-13T01:40:34.663Z,17.93
2018-12-13T01:43:02.865Z,16.57
2018-12-13T01:45:31.055Z,17.53
2018-12-13T01:47:59.227Z,16.83
2018-12-13T01:50:27.416Z,18.57
2018-12-13T01:52:55.582Z,17.13
2018-12-13T01:55:23.769Z,16.40
2018-12-13T01:57:51.933Z,18.47
2018-12-13T02:00:20.087Z,18.23
2018-12-13T02:02:48.266Z,17.90
2018-12-13T02:05:16.428Z,16.40
2018-12-13T02:07:44.613Z,16.27
2018-12-13T02:10:12.772Z,16.70
2018-12-13T02:12:40.951Z,16.87
2018-12-13T02:15:09.191Z,16.57
2018-12-13T02:17:37.375Z,15.70
2018-12-13T02:20:05.712Z,16.10
2018-12-13T02:22:33.992Z,15.80
2018-12-13T02:25:02.325Z,16.77
2018-12-13T02:27:30.507Z,16.43
2018-12-13T02:29:58.655Z,15.80
2018-12-13T02:32:26.843Z,16.60
2018-12-13T02:34:55.027Z,16.23
2018-12-13T02:37:23.197Z,17.60
2018-12-13T02:39:51.374Z,16.00
2018-12-13T02:42:19.589Z,16.03
2018-12-13T02:44:47.757Z,17.47
2018-12-13T02:47:15.925Z,16.53
2018-12-13T02:49:44.104Z,16.67
2018-12-13T02:52:12.387Z,17.07
2018-12-13T02:54:40.639Z,17.17
2018-12-13T02:57:08.981Z,16.93
2018-12-13T02:59:37.245Z,16.90
2018-12-13T03:02:05.428Z,17.37
2018-12-13T03:04:33.615Z,17.57
2018-12-13T03:07:01.861Z,17.23
2018-12-13T03:09:30.039Z,16.23
2018-12-13T03:11:58.229Z,17.37
2018-12-13T03:14:26.438Z,16.90
2018-12-13T03:16:54.690Z,17.50
2018-12-13T03:19:22.854Z,17.13
2018-12-13T03:21:51.039Z,18.80
2018-12-13T03:24:19.235Z,17.67
2018-12-13T03:26:47.434Z,18.17
2018-12-13T03:29:15.699Z,16.70
2018-12-13T03:31:43.865Z,18.23
2018-12-13T03:34:12.036Z,17.30
2018-12-13T03:36:40.220Z,18.60
2018-12-13T03:39:08.396Z,17.67
2018-12-13T03:41:36.679Z,19.70
2018-12-13T03:44:04.840Z,20.80
2018-12-13T03:46:33.022Z,19.67
2018-12-13T03:49:01.216Z,19.43
2018-12-13T03:51:29.411Z,19.77
2018-12-13T03:53:57.565Z,18.27
2018-12-13T03:56:25.761Z,18.47
2018-12-13T03:58:53.931Z,17.73
2018-12-13T04:01:22.117Z,18.20
2018-12-13T04:03:50.360Z,19.23
2018-12-13T04:06:18.533Z,20.27
2018-12-13T04:08:46.742Z,18.30
2018-12-13T04:11:14.889Z,20.63
2018-12-13T04:13:43.097Z,18.37
2018-12-13T04:16:11.234Z,18.40
2018-12-13T04:18:39.555Z,18.30
2018-12-13T04:21:07.747Z,18.50
2018-12-13T04:23:35.990Z,19.33
2018-12-13T04:26:04.144Z,18.93
2018-12-13T04:28:32.329Z,18.07
2018-12-13T04:31:00.491Z,19.50
2018-12-13T04:33:28.682Z,19.17
2018-12-13T04:35:56.863Z,17.70
2018-12-13T04:38:25.116Z,18.23
2018-12-13T04:40:53.291Z,18.03
2018-12-13T04:43:21.478Z,18.77
2018-12-13T04:45:49.648Z,19.70
2018-12-13T04:48:17.843Z,19.20
2018-12-13T04:50:46.025Z,22.60
2018-12-13T04:53:14.222Z,18.13
2018-12-13T04:55:42.472Z,19.50
2018-12-13T04:58:11.302Z,19.20
2018-12-13T05:00:39.481Z,19.97
2018-12-13T05:03:07.650Z,21.40
2018-12-13T05:05:35.826Z,19.63
2018-12-13T05:08:03.986Z,21.63
2018-12-13T05:10:55.164Z,21.73
2018-12-13T05:13:23.332Z,20.83
2018-12-13T05:15:51.586Z,20.97
2018-12-13T05:18:19.840Z,20.60
2018-12-13T05:20:48.120Z,20.73
2018-12-13T05:23:16.424Z,21.80
2018-12-13T05:25:44.608Z,21.63
2018-12-13T05:28:12.775Z,21.60
2018-12-13T05:30:41.044Z,21.37
2018-12-13T05:33:09.215Z,22.83
2018-12-13T05:35:37.373Z,20.37
2018-12-13T05:38:05.578Z,21.60
2018-12-13T05:40:34.197Z,21.90
2018-12-13T05:43:02.368Z,23.13
2018-12-13T05:45:30.540Z,21.60
2018-12-13T05:47:58.876Z,22.93
2018-12-13T05:50:27.070Z,22.53
2018-12-13T05:52:55.270Z,21.17
2018-12-13T05:55:23.447Z,22.20
2018-12-13T05:57:51.642Z,24.13
2018-12-13T06:00:19.809Z,23.57
2018-12-13T06:02:48.024Z,23.37
2018-12-13T06:05:16.168Z,21.60
2018-12-13T06:07:44.363Z,23.03
2018-12-13T06:10:12.549Z,22.53
2018-12-13T06:12:40.741Z,23.53
2018-12-13T06:15:08.917Z,22.97
2018-12-13T06:17:37.185Z,23.10
2018-12-13T06:20:06.631Z,22.47
2018-12-13T06:22:34.804Z,21.17
2018-12-13T06:25:03.510Z,21.53
2018-12-13T06:27:31.696Z,21.30
2018-12-13T06:29:59.862Z,20.00
2018-12-13T06:32:28.056Z,21.20
2018-12-13T06:34:56.208Z,20.57
2018-12-13T06:37:24.404Z,21.60
2018-12-13T06:39:52.590Z,19.07
2018-12-13T06:42:20.888Z,21.90
2018-12-13T06:44:49.151Z,20.87
2018-12-13T06:47:18.187Z,20.70
2018-12-13T06:49:46.358Z,19.30
2018-12-13T06:52:14.618Z,20.10
2018-12-13T06:54:42.741Z,18.97
2018-12-13T06:57:10.994Z,17.93
2018-12-13T06:59:39.158Z,18.13
2018-12-13T07:02:07.408Z,17.77
2018-12-13T07:04:35.757Z,17.67
2018-12-13T07:07:04.012Z,16.43
2018-12-13T07:09:32.200Z,16.83
2018-12-13T07:12:00.359Z,15.70
2018-12-13T07:14:28.565Z,15.73
2018-12-13T07:16:56.740Z,15.13
2018-12-13T07:19:24.924Z,16.07
2018-12-13T07:21:53.090Z,15.03
2018-12-13T07:24:21.269Z,15.20
2018-12-13T07:26:49.428Z,13.60
2018-12-13T07:29:17.624Z,13.73
2018-12-13T07:31:45.904Z,13.20
2018-12-13T07:34:14.064Z,13.07
2018-12-13T07:36:42.252Z,12.13
2018-12-13T07:39:10.421Z,15.13
2018-12-13T07:41:39.032Z,13.63
2018-12-13T07:44:07.171Z,11.87
2018-12-13T07:46:35.378Z,11.67
2018-12-13T07:49:03.622Z,12.97
2018-12-13T07:51:31.806Z,13.57
2018-12-13T07:53:59.966Z,12.60
2018-12-13T07:56:29.276Z,13.53
2018-12-13T07:58:57.616Z,12.87
2018-12-13T08:01:25.824Z,12.70
2018-12-13T08:03:54.008Z,13.57
2018-12-13T08:06:22.263Z,12.90
2018-12-13T08:08:50.444Z,12.37
2018-12-13T08:11:18.612Z,12.97
2018-12-13T08:13:46.792Z,12.47
2018-12-13T08:16:14.961Z,13.27
2018-12-13T08:18:43.141Z,11.47
2018-12-13T08:21:11.306Z,12.00
2018-12-13T08:23:39.489Z,12.90
2018-12-13T08:26:07.662Z,12.07
2018-12-13T08:28:35.858Z,11.77
2018-12-13T08:31:04.040Z,12.00
2018-12-13T08:33:32.226Z,11.90
2018-12-13T08:36:00.417Z,12.27
2018-12-13T08:38:28.583Z,12.60
2018-12-13T08:40:57.343Z,12.13
2018-12-13T08:43:25.595Z,10.10
2018-12-13T08:45:53.801Z,11.07
2018-12-13T08:48:21.982Z,10.60
2018-12-13T08:50:50.160Z,11.47
2018-12-13T08:53:18.336Z,12.17
2018-12-13T08:55:46.529Z,12.33
2018-12-13T08:58:14.784Z,11.37
2018-12-13T09:00:43.075Z,10.87
2018-12-13T09:03:11.236Z,12.00
2018-12-13T09:05:39.428Z,11.53
2018-12-13T09:08:07.634Z,10.43
2018-12-13T09:10:35.899Z,11.07
2018-12-13T09:13:04.101Z,12.10
2018-12-13T09:15:32.272Z,11.90
2018-12-13T09:18:00.525Z,9.10
2018-12-13T09:20:28.764Z,10.73
2018-12-13T09:22:56.935Z,10.13
2018-12-13T09:25:25.121Z,10.20
2018-12-13T09:27:53.296Z,10.20
2018-12-13T09:30:21.464Z,10.73
2018-12-13T09:32:49.665Z,10.30
2018-12-13T09:35:17.837Z,11.10
2018-12-13T09:37:47.693Z,9.10
2018-12-13T09:40:16.192Z,10.00
2018-12-13T09:42:44.333Z,10.30
2018-12-13T09:45:12.494Z,10.33
2018-12-13T09:47:40.681Z,9.47
2018-12-13T09:50:08.828Z,9.80
2018-12-13T09:52:36.988Z,9.33
2018-12-13T09:55:05.812Z,10.07
2018-12-13T09:57:34.296Z,9.77
2018-12-13T10:00:05.065Z,10.10
2018-12-13T10:02:33.240Z,9.53
2018-12-13T10:05:01.508Z,9.20
2018-12-13T10:07:29.656Z,9.50
2018-12-13T10:09:57.869Z,10.17
2018-12-13T10:12:26.029Z,9.20
2018-12-13T10:14:54.216Z,9.23
2018-12-13T10:17:22.380Z,9.63
2018-12-13T10:19:50.564Z,9.53
2018-12-13T10:22:18.720Z,8.77
2018-12-13T10:24:46.926Z,9.83
2018-12-13T10:27:15.092Z,9.57
2018-12-13T10:29:43.269Z,8.20
2018-12-13T10:32:11.454Z,9.20
2018-12-13T10:34:39.628Z,9.87
2018-12-13T10:39:53.588Z,9.33
2018-12-13T10:42:21.764Z,8.80
2018-12-13T10:44:50.519Z,9.03
2018-12-13T10:47:19.705Z,8.77
2018-12-13T10:49:48.660Z,9.60
2018-12-13T10:52:16.899Z,9.70
2018-12-13T10:54:45.079Z,9.07
2018-12-13T10:57:22.620Z,9.40
2018-12-13T10:59:52.389Z,9.43
2018-12-13T11:02:20.586Z,9.10
2018-12-13T11:04:48.759Z,8.57
2018-12-13T11:07:16.965Z,8.97
2018-12-13T11:09:45.131Z,9.80
2018-12-13T11:12:13.308Z,8.57
2018-12-13T11:14:41.568Z,9.30
2018-12-13T11:17:09.708Z,8.90
2018-12-13T11:19:37.877Z,8.40
2018-12-13T11:22:06.064Z,9.37
2018-12-13T11:24:34.230Z,8.53
2018-12-13T11:27:14.451Z,9.13
2018-12-13T11:29:57.644Z,9.43
2018-12-13T11:32:25.805Z,7.83
2018-12-13T11:34:54.502Z,9.10
2018-12-13T11:37:22.695Z,8.77
2018-12-13T11:39:50.935Z,8.20
2018-12-13T11:42:19.097Z,8.83
2018-12-13T11:44:47.268Z,9.10
2018-12-13T11:47:15.444Z,9.33
2018-12-13T11:49:43.603Z,8.77
2018-12-13T11:52:11.790Z,8.97
2018-12-13T11:54:41.237Z,9.03
2018-12-13T11:57:09.509Z,8.67
2018-12-13T11:59:37.696Z,7.30
2018-12-13T12:02:05.929Z,7.77
2018-12-13T12:04:34.137Z,8.30
2018-12-13T12:07:02.329Z,7.90
2018-12-13T12:09:30.549Z,8.63
2018-12-13T12:11:58.679Z,9.13
2018-12-13T12:14:26.976Z,8.30
2018-12-13T12:16:55.125Z,9.03
2018-12-13T12:19:23.304Z,7.77
2018-12-13T12:21:51.461Z,8.77
2018-12-13T12:24:20.012Z,8.63
2018-12-13T12:26:48.274Z,9.13
2018-12-13T12:29:16.443Z,8.93
2018-12-13T12:31:44.603Z,8.07
2018-12-13T12:34:12.808Z,8.60
2018-12-13T12:36:41.000Z,9.17
2018-12-13T12:39:09.156Z,8.40
2018-12-13T12:41:37.330Z,8.23
2018-12-13T12:44:05.485Z,9.30
2018-12-13T12:46:33.682Z,8.63
2018-12-13T12:49:01.837Z,8.40
2018-12-13T12:51:30.034Z,9.00
2018-12-13T12:53:58.196Z,8.77
2018-12-13T12:56:26.375Z,9.00
2018-12-13T12:58:54.545Z,8.57
2018-12-13T13:01:22.744Z,9.47
2018-12-13T13:03:50.916Z,9.37
2018-12-13T13:06:19.092Z,9.70
2018-12-13T13:08:47.267Z,9.13
2018-12-13T13:11:15.435Z,8.07
2018-12-13T13:13:43.598Z,9.97
2018-12-13T13:16:11.795Z,9.50
2018-12-13T13:18:39.960Z,9.23
2018-12-13T13:21:08.157Z,9.20
2018-12-13T13:23:36.403Z,10.23
2018-12-13T13:26:04.585Z,8.90
2018-12-13T13:28:32.841Z,10.07
2018-12-13T13:31:01.014Z,9.17
2018-12-13T13:33:29.189Z,9.50
2018-12-13T13:35:57.344Z,10.40
2018-12-13T13:38:25.534Z,10.13
2018-12-13T13:40:53.750Z,9.33
2018-12-13T13:43:21.928Z,9.90
2018-12-13T13:45:50.084Z,11.17
2018-12-13T13:48:18.308Z,9.90
2018-12-13T13:50:46.460Z,9.97
2018-12-13T13:53:14.637Z,10.13
2018-12-13T13:55:42.800Z,9.37
2018-12-13T13:58:11.770Z,9.80
2018-12-13T14:00:40.026Z,10.00
2018-12-13T14:03:08.196Z,9.83
2018-12-13T14:05:36.509Z,9.40
2018-12-13T14:08:04.724Z,10.40
2018-12-13T14:10:32.909Z,9.83
2018-12-13T14:13:01.076Z,9.70
2018-12-13T14:15:29.496Z,9.60
2018-12-13T14:17:57.720Z,9.10
2018-12-13T14:20:25.992Z,10.07
2018-12-13T14:22:54.163Z,9.30
2018-12-13T14:25:22.358Z,8.40
2018-12-13T14:27:50.542Z,9.57
2018-12-13T14:30:18.801Z,8.53
2018-12-13T14:32:47.024Z,9.83
2018-12-13T14:35:15.187Z,9.50
2018-12-13T14:37:43.337Z,9.80
2018-12-13T14:40:11.618Z,9.90
2018-12-13T14:42:39.823Z,9.43
2018-12-13T14:45:08.065Z,9.60
2018-12-13T14:47:36.270Z,9.63
2018-12-13T14:50:06.214Z,10.40
2018-12-13T14:52:34.400Z,9.63
2018-12-13T14:55:02.717Z,10.50
2018-12-13T14:57:30.941Z,10.67
2018-12-13T14:59:59.096Z,10.40
2018-12-13T15:02:27.279Z,9.80
2018-12-13T15:04:55.617Z,9.00
2018-12-13T15:07:23.796Z,10.97
2018-12-13T15:09:51.974Z,9.63
2018-12-13T15:12:20.262Z,10.57
2018-12-13T15:14:48.420Z,10.70
2018-12-13T15:17:16.602Z,10.03
2018-12-13T15:19:44.763Z,11.40
2018-12-13T15:22:12.968Z,10.50
2018-12-13T15:24:41.182Z,11.73
2018-12-13T15:40:32.170Z,11.33
2018-12-13T15:45:46.273Z,11.00
2018-12-13T15:48:14.550Z,11.77
2018-12-13T15:50:42.729Z,11.07
2018-12-13T15:53:11.294Z,11.63
2018-12-13T15:55:39.679Z,11.27
2018-12-13T15:58:08.094Z,10.37
2018-12-13T16:00:36.432Z,11.37
2018-12-13T16:03:04.802Z,11.27
2018-12-13T16:05:33.268Z,12.37
2018-12-13T16:08:01.578Z,12.50
2018-12-13T16:10:30.019Z,11.83
2018-12-13T16:12:58.852Z,14.07
2018-12-13T16:15:27.682Z,13.57
2018-12-13T16:17:56.242Z,12.87
2018-12-13T16:20:24.605Z,12.93
2018-12-13T16:22:52.866Z,13.00
2018-12-13T16:25:21.089Z,12.73
2018-12-13T16:27:49.279Z,12.30
2018-12-13T16:30:17.451Z,12.80
2018-12-13T16:32:45.649Z,12.17
2018-12-13T16:35:13.903Z,10.43
2018-12-13T16:37:42.068Z,25.83
2018-12-13T16:40:10.563Z,23.17
2018-12-13T16:42:38.972Z,24.80
2018-12-13T16:45:07.493Z,16.20
2018-12-13T16:47:35.688Z,27.27
2018-12-13T16:50:05.131Z,21.23
2018-12-13T16:52:33.307Z,22.17
2018-12-13T16:55:01.715Z,22.93
2018-12-13T16:57:29.951Z,15.83
2018-12-13T16:59:58.333Z,14.23
2018-12-13T17:02:26.571Z,14.60
2018-12-13T17:04:54.956Z,14.00
2018-12-13T17:07:23.120Z,12.23
2018-12-13T17:09:51.304Z,12.77
2018-12-13T17:12:19.899Z,12.63
2018-12-13T17:14:48.161Z,13.90
2018-12-13T17:17:17.072Z,13.20
2018-12-13T17:19:45.255Z,12.93
2018-12-13T17:22:13.422Z,13.67
2018-12-13T17:24:41.596Z,15.50
2018-12-13T17:27:09.791Z,13.87
2018-12-13T17:29:37.991Z,13.50
2018-12-13T17:32:06.173Z,14.73
2018-12-13T17:34:34.378Z,14.30
2018-12-13T17:37:02.659Z,12.83
2018-12-13T17:39:31.043Z,14.43
2018-12-13T17:41:59.216Z,13.17
2018-12-13T17:44:27.405Z,13.47
2018-12-13T17:46:55.606Z,12.30
2018-12-13T17:49:23.765Z,14.10
2018-12-13T17:51:51.943Z,13.53
2018-12-13T17:54:20.123Z,12.90
2018-12-13T17:56:49.518Z,13.90
2018-12-13T17:59:18.292Z,13.43
2018-12-13T18:01:46.481Z,14.37
2018-12-13T18:04:15.546Z,15.37
2018-12-13T18:06:43.869Z,15.67
2018-12-13T18:09:12.031Z,15.53
2018-12-13T18:11:41.084Z,18.57
2018-12-13T18:14:09.297Z,14.53
2018-12-13T18:16:43.248Z,16.37
2018-12-13T18:19:07.632Z,15.27
2018-12-13T18:21:35.861Z,15.87
2018-12-13T18:24:04.099Z,18.00
2018-12-13T18:26:32.272Z,18.07
2018-12-13T18:29:00.477Z,17.13
2018-12-13T18:31:28.637Z,14.50
2018-12-13T18:33:56.821Z,15.30
2018-12-13T18:36:25.080Z,15.23
2018-12-13T18:38:53.361Z,13.60
2018-12-13T18:41:21.521Z,20.50
2018-12-13T18:43:50.077Z,35.33
2018-12-13T18:46:18.250Z,24.43
2018-12-13T18:48:46.779Z,15.90
2018-12-13T18:51:14.956Z,16.90
2018-12-13T18:53:43.156Z,14.50
2018-12-13T18:56:11.332Z,16.13
2018-12-13T18:58:39.546Z,14.00
2018-12-13T19:01:07.715Z,16.20
2018-12-13T19:03:35.920Z,15.70
2018-12-13T19:06:04.513Z,17.20
2018-12-13T19:08:32.687Z,14.13
2018-12-13T19:11:00.858Z,14.50
2018-12-13T19:13:29.047Z,15.27
2018-12-13T19:15:57.229Z,14.70
2018-12-13T19:18:25.485Z,14.13
2018-12-13T19:20:53.718Z,14.80
2018-12-13T19:23:21.892Z,27.10
2018-12-13T19:25:51.001Z,29.80
2018-12-13T19:28:20.122Z,30.37
2018-12-13T19:30:48.386Z,20.77
2018-12-13T19:33:16.570Z,15.30
2018-12-13T19:35:44.837Z,15.30
2018-12-13T19:38:12.982Z,19.67
2018-12-13T19:40:41.184Z,14.77
2018-12-13T19:43:09.356Z,16.67
2018-12-13T19:45:37.646Z,19.43
2018-12-13T19:48:05.871Z,17.87
2018-12-13T19:50:34.055Z,15.93
2018-12-13T19:53:02.248Z,14.93
2018-12-13T19:55:30.414Z,18.13
2018-12-13T19:57:58.640Z,17.40
2018-12-13T20:00:26.826Z,16.07
2018-12-13T20:02:55.089Z,19.90
2018-12-13T20:05:23.245Z,14.83
2018-12-13T20:07:51.444Z,13.90
2018-12-13T20:10:19.664Z,15.67
2018-12-13T20:12:47.876Z,14.07
2018-12-13T20:15:16.111Z,16.20
2018-12-13T20:17:44.301Z,12.93
2018-12-13T20:20:12.557Z,14.03
2018-12-13T20:22:40.766Z,12.53
2018-12-13T20:25:08.933Z,12.50
2018-12-13T20:27:37.118Z,13.53
2018-12-13T20:30:06.510Z,17.43
2018-12-13T20:32:34.656Z,12.60
2018-12-13T20:35:04.649Z,25.87
2018-12-13T20:37:32.988Z,13.93
2018-12-13T20:40:01.184Z,14.27
2018-12-13T20:42:29.361Z,12.13
2018-12-13T20:44:57.535Z,10.43
2018-12-13T20:47:25.753Z,11.37
2018-12-13T20:49:53.905Z,14.07
2018-12-13T20:52:22.071Z,11.70
2018-12-13T20:54:50.290Z,11.80
2018-12-13T20:57:18.456Z,11.70
2018-12-13T20:59:46.675Z,12.90
2018-12-13T21:02:14.846Z,12.60
2018-12-13T21:04:43.118Z,11.77
2018-12-13T21:07:11.329Z,11.47
2018-12-13T21:09:39.524Z,11.50
2018-12-13T21:12:07.867Z,12.30
2018-12-13T21:14:36.045Z,12.23
2018-12-13T21:17:04.274Z,12.47
2018-12-13T21:19:32.479Z,11.77
2018-12-13T21:22:01.351Z,12.83
2018-12-13T21:24:29.513Z,12.37
2018-12-13T21:26:57.707Z,12.50
2018-12-13T21:29:25.981Z,11.80
2018-12-13T21:31:54.162Z,12.27
2018-12-13T21:34:23.109Z,12.17
2018-12-13T21:36:51.313Z,12.77
2018-12-13T21:39:19.515Z,13.30
2018-12-13T21:41:47.698Z,12.73
2018-12-13T21:44:16.176Z,12.97
2018-12-13T21:46:46.081Z,12.57
2018-12-13T21:49:14.275Z,13.83
2018-12-13T21:51:42.471Z,13.60
2018-12-13T21:54:10.656Z,12.63
2018-12-13T21:56:38.878Z,13.97
2018-12-13T21:59:07.106Z,14.30
2018-12-13T22:01:35.265Z,13.30
2018-12-13T22:04:03.555Z,13.23
2018-12-13T22:06:31.815Z,14.00
2018-12-13T22:09:00.031Z,13.80
2018-12-13T22:11:28.187Z,14.20
2018-12-13T22:13:56.478Z,14.47
2018-12-13T22:16:24.678Z,15.10
2018-12-13T22:18:52.933Z,14.20
2018-12-13T22:21:21.111Z,13.30
2018-12-13T22:23:49.355Z,15.87
2018-12-13T22:26:17.597Z,15.40
2018-12-13T22:28:45.789Z,15.87
2018-12-13T22:31:14.044Z,16.07
2018-12-13T22:33:42.228Z,14.83
2018-12-13T22:36:10.416Z,16.67
2018-12-13T22:38:38.568Z,16.80
2018-12-13T22:41:06.850Z,15.33
2018-12-13T22:43:35.109Z,15.67
2018-12-13T22:46:03.390Z,16.27
2018-12-13T22:48:32.334Z,16.30
2018-12-13T22:51:00.710Z,16.07
2018-12-13T22:53:29.157Z,16.63
2018-12-13T22:55:57.408Z,17.47
2018-12-13T22:58:25.661Z,17.30
2018-12-13T23:00:53.975Z,17.73
2018-12-13T23:03:22.126Z,18.50
2018-12-13T23:05:50.470Z,17.03
2018-12-13T23:08:18.653Z,18.07
2018-12-13T23:10:46.825Z,17.80
2018-12-13T23:13:15.082Z,16.40
2018-12-13T23:15:43.353Z,17.57
2018-12-13T23:18:12.403Z,16.37
2018-12-13T23:20:40.832Z,18.07
2018-12-13T23:23:09.022Z,17.37
2018-12-13T23:25:37.193Z,17.50
2018-12-13T23:28:05.390Z,18.60
2018-12-13T23:30:33.556Z,17.83
2018-12-13T23:33:01.740Z,18.37
2018-12-13T23:35:29.909Z,17.93
2018-12-13T23:37:58.105Z,19.03
2018-12-13T23:40:26.263Z,20.53
2018-12-13T23:42:54.453Z,18.43
2018-12-13T23:45:22.619Z,18.67
2018-12-13T23:47:50.786Z,19.23
2018-12-13T23:50:18.981Z,18.17
2018-12-13T23:52:47.173Z,19.00
2018-12-13T23:55:15.370Z,19.20
2018-12-13T23:57:43.535Z,19.10
